Time;durP1;ratioP1;P1;durP2;ratioP2;P2;SDS_P1;SDS_P2;PMS_P1;PMS_P2;Temp;Humidity;BMP_temperature;BMP_pressure;BME280_temperature;BME280_humidity;BME280_pressure;Samples;Min_cycle;Max_cycle;Signal;HPM_P1;HPM_P2
2023/06/03 00:01:51;;;;;;;8.17;2.77;;;;;;;13.50;100.00;100304.97;5017544;28;20705;-76
2023/06/03 00:04:17;;;;;;;5.77;2.73;;;;;;;13.54;100.00;100306.44;5015297;28;20212;-76
2023/06/03 00:06:43;;;;;;;6.93;3.20;;;;;;;13.52;100.00;100303.09;5013494;28;20186;-76
2023/06/03 00:09:09;;;;;;;7.30;2.73;;;;;;;13.43;100.00;100294.19;5012408;28;20178;-76
2023/06/03 00:11:37;;;;;;;5.77;2.60;;;;;;;13.38;100.00;100291.06;5005408;28;20284;-77
2023/06/03 00:14:03;;;;;;;9.87;2.87;;;;;;;13.32;100.00;100294.84;5027824;28;20183;-76
2023/06/03 00:16:28;;;;;;;7.73;3.20;;;;;;;13.32;100.00;100287.09;5013620;28;20179;-76
2023/06/03 00:18:53;;;;;;;5.63;2.63;;;;;;;13.33;100.00;100295.66;5012336;28;20202;-76
2023/06/03 00:21:18;;;;;;;8.27;2.87;;;;;;;13.30;100.00;100293.28;5005311;28;20236;-76
2023/06/03 00:23:45;;;;;;;7.93;3.13;;;;;;;13.34;100.00;100297.34;5019060;28;20179;-76
2023/06/03 00:26:11;;;;;;;7.77;2.80;;;;;;;13.27;100.00;100291.69;5013115;28;20241;-76
2023/06/03 00:28:36;;;;;;;5.23;2.67;;;;;;;13.29;100.00;100296.78;5011064;28;20194;-77
2023/06/03 00:31:01;;;;;;;5.23;2.90;;;;;;;13.23;100.00;100298.00;4991602;28;20238;-76
2023/06/03 00:33:26;;;;;;;5.77;2.70;;;;;;;13.22;100.00;100293.75;5017034;28;20183;-77
2023/06/03 00:35:52;;;;;;;8.70;3.40;;;;;;;13.26;100.00;100292.66;5012751;28;20175;-76
2023/06/03 00:38:18;;;;;;;7.30;2.60;;;;;;;13.21;100.00;100298.09;5011752;28;20186;-77
2023/06/03 00:40:43;;;;;;;9.70;3.10;;;;;;;13.18;100.00;100294.88;5005273;28;20230;-77
2023/06/03 00:43:09;;;;;;;5.07;3.30;;;;;;;13.17;100.00;100296.66;5012000;28;20699;-77
2023/06/03 00:45:34;;;;;;;3.57;2.60;;;;;;;13.19;100.00;100289.59;5011556;28;20178;-76
2023/06/03 00:47:59;;;;;;;8.37;3.13;;;;;;;13.20;100.00;100287.88;5013015;28;20186;-77
2023/06/03 00:50:25;;;;;;;8.73;2.77;;;;;;;13.11;100.00;100293.59;5004715;28;20716;-77
2023/06/03 00:52:51;;;;;;;5.63;3.03;;;;;;;13.05;100.00;100287.88;5011601;28;20191;-77
2023/06/03 00:55:17;;;;;;;7.67;3.23;;;;;;;13.05;100.00;100280.16;5012670;28;20232;-77
2023/06/03 00:57:42;;;;;;;7.30;3.40;;;;;;;13.10;100.00;100279.03;5012922;28;20547;-77
2023/06/03 01:00:08;;;;;;;5.80;3.07;;;;;;;13.04;100.00;100281.06;5003335;28;20174;-77
2023/06/03 01:02:36;;;;;;;5.63;2.87;;;;;;;13.03;100.00;100279.41;5011454;28;20202;-77
2023/06/03 01:05:03;;;;;;;10.23;3.57;;;;;;;13.05;100.00;100277.56;5012322;28;20294;-77
2023/06/03 01:07:46;;;;;;;6.50;2.80;;;;;;;13.05;100.00;100287.88;5011567;28;20194;-78
2023/06/03 01:10:32;;;;;;;7.60;3.13;;;;;;;12.99;100.00;100282.28;5002604;28;20661;-77
2023/06/03 01:13:04;;;;;;;4.17;2.63;;;;;;;12.96;100.00;100283.31;5012692;28;20225;-77
2023/06/03 01:15:32;;;;;;;7.93;2.77;;;;;;;12.91;100.00;100282.72;5006407;28;20634;-77
2023/06/03 01:18:04;;;;;;;9.50;3.93;;;;;;;12.90;100.00;100271.59;5011242;28;20279;-77
2023/06/03 01:20:29;;;;;;;6.07;3.10;;;;;;;13.01;100.00;100270.94;5004231;28;20225;-77
2023/06/03 01:23:11;;;;;;;8.73;3.27;;;;;;;12.91;100.00;100270.69;5024823;28;20237;-77
2023/06/03 01:25:40;;;;;;;6.50;3.37;;;;;;;12.98;100.00;100267.72;5010795;28;20185;-78
2023/06/03 01:28:05;;;;;;;5.33;2.80;;;;;;;13.03;100.00;100268.25;5012277;28;20214;-77
2023/06/03 01:30:30;;;;;;;7.27;2.87;;;;;;;12.89;100.00;100264.75;5006187;28;20743;-78
2023/06/03 01:32:56;;;;;;;5.43;3.03;;;;;;;12.94;100.00;100261.06;5011273;28;20194;-77
2023/06/03 01:35:22;;;;;;;9.47;3.40;;;;;;;12.98;100.00;100263.38;5012010;28;20191;-77
2023/06/03 01:37:47;;;;;;;8.47;3.40;;;;;;;12.94;100.00;100263.66;5010714;28;20210;-77
2023/06/03 01:40:14;;;;;;;6.10;3.20;;;;;;;12.84;100.00;100266.81;5002967;28;20178;-78
2023/06/03 01:42:39;;;;;;;8.33;3.33;;;;;;;12.88;100.00;100265.69;5010969;28;20178;-78
2023/06/03 01:45:05;;;;;;;5.90;3.17;;;;;;;12.82;100.00;100267.81;5010551;28;20190;-78
2023/06/03 01:47:31;;;;;;;6.67;3.27;;;;;;;12.76;100.00;100266.44;5008965;28;20189;-77
2023/06/03 01:49:57;;;;;;;5.70;3.90;;;;;;;12.75;100.00;100264.78;5010631;28;20178;-77
2023/06/03 01:52:22;;;;;;;9.43;3.47;;;;;;;12.75;100.00;100259.59;5017618;28;20617;-78
2023/06/03 01:54:47;;;;;;;9.00;3.47;;;;;;;12.78;100.00;100253.47;5011877;28;20174;-78
2023/06/03 01:57:13;;;;;;;10.20;3.90;;;;;;;12.81;100.00;100254.06;5011512;28;20689;-77
2023/06/03 01:59:38;;;;;;;8.13;3.43;;;;;;;12.70;100.00;100248.75;5010934;28;20209;-77
2023/06/03 02:02:04;;;;;;;9.27;3.93;;;;;;;12.85;100.00;100246.97;5016686;28;20356;-78
2023/06/03 02:04:30;;;;;;;6.37;3.53;;;;;;;12.77;100.00;100252.63;5012068;28;20183;-77
2023/06/03 02:06:59;;;;;;;9.37;3.70;;;;;;;12.74;100.00;100250.22;5004748;28;20171;-78
2023/06/03 02:09:27;;;;;;;7.27;3.57;;;;;;;12.81;100.00;100248.91;5003511;28;20546;-78
2023/06/03 02:11:53;;;;;;;7.37;3.47;;;;;;;12.73;100.00;100249.38;5014924;28;20249;-77
2023/06/03 02:14:18;;;;;;;8.77;3.90;;;;;;;12.67;100.00;100249.75;5010755;28;20175;-78
2023/06/03 02:16:44;;;;;;;5.30;3.67;;;;;;;12.72;100.00;100246.91;5023611;28;20200;-77
2023/06/03 02:19:17;;;;;;;8.97;4.17;;;;;;;12.67;100.00;100246.38;5010487;28;20222;-77
2023/06/03 02:21:43;;;;;;;8.23;3.77;;;;;;;12.74;100.00;100242.50;5003613;28;20575;-77
2023/06/03 02:24:09;;;;;;;5.70;3.23;;;;;;;12.78;100.00;100243.13;5010068;28;20183;-76
2023/06/03 02:26:36;;;;;;;6.97;3.60;;;;;;;12.70;100.00;100241.00;5009898;28;20221;-78
2023/06/03 02:29:02;;;;;;;8.67;3.60;;;;;;;12.64;100.00;100233.63;5004575;28;20199;-78
2023/06/03 02:31:29;;;;;;;7.40;3.73;;;;;;;12.69;100.00;100237.59;4996512;28;20291;-77
2023/06/03 02:33:54;;;;;;;9.00;4.17;;;;;;;12.66;100.00;100244.69;5018987;28;20272;-77
2023/06/03 02:36:19;;;;;;;5.83;3.17;;;;;;;12.69;100.00;100239.34;5025715;28;20653;-78
2023/06/03 02:38:47;;;;;;;8.40;3.43;;;;;;;12.68;100.00;100248.03;5026428;28;20186;-77
2023/06/03 02:41:12;;;;;;;6.37;3.60;;;;;;;12.65;100.00;100243.03;5019379;28;20238;-77
2023/06/03 02:43:37;;;;;;;8.33;3.73;;;;;;;12.58;100.00;100242.59;5024944;28;20640;-77
2023/06/03 02:46:03;;;;;;;6.87;3.90;;;;;;;12.66;100.00;100242.13;5011390;28;20186;-77
2023/06/03 02:48:28;;;;;;;9.00;4.10;;;;;;;12.65;100.00;100245.63;5010026;28;20247;-78
2023/06/03 02:50:53;;;;;;;6.57;3.73;;;;;;;12.57;100.00;100254.66;5006470;28;20237;-78
2023/06/03 02:53:18;;;;;;;6.17;3.80;;;;;;;12.58;100.00;100253.72;5023972;28;20182;-77
2023/06/03 02:55:45;;;;;;;6.93;3.57;;;;;;;12.61;100.00;100259.63;5014971;28;20187;-77
2023/06/03 02:58:12;;;;;;;8.43;3.80;;;;;;;12.55;100.00;100255.66;5014881;28;20683;-77
2023/06/03 03:00:39;;;;;;;6.97;3.53;;;;;;;12.55;100.00;100260.81;4997038;28;20226;-78
2023/06/03 03:03:04;;;;;;;5.00;3.27;;;;;;;12.55;100.00;100263.41;5012780;28;20186;-78
2023/06/03 03:05:30;;;;;;;7.00;3.60;;;;;;;12.59;100.00;100264.91;5014700;28;20248;-77
2023/06/03 03:07:58;;;;;;;5.00;3.57;;;;;;;12.56;100.00;100265.06;5013485;28;20178;-77
2023/06/03 03:10:24;;;;;;;9.47;3.70;;;;;;;12.50;100.00;100266.28;5006368;28;20236;-77
2023/06/03 03:12:49;;;;;;;4.83;3.67;;;;;;;12.58;100.00;100268.41;5013413;28;20226;-77
2023/06/03 03:15:15;;;;;;;7.13;3.70;;;;;;;12.56;100.00;100267.66;5006342;28;20179;-76
2023/06/03 03:17:41;;;;;;;5.47;3.53;;;;;;;12.52;100.00;100273.94;4999896;28;20182;-76
2023/06/03 03:20:07;;;;;;;5.93;3.33;;;;;;;12.52;100.00;100274.75;5003729;28;20218;-77
2023/06/03 03:22:34;;;;;;;9.23;3.37;;;;;;;12.43;100.00;100273.53;5029054;28;20195;-76
2023/06/03 03:24:59;;;;;;;8.13;4.07;;;;;;;12.45;100.00;100275.22;5013242;28;20249;-76
2023/06/03 03:27:25;;;;;;;7.83;4.33;;;;;;;12.50;100.00;100270.59;5014720;28;20646;-77
2023/06/03 03:29:53;;;;;;;7.97;4.30;;;;;;;12.46;100.00;100282.84;5002437;28;20171;-77
2023/06/03 03:32:19;;;;;;;9.43;3.73;;;;;;;12.48;100.00;100286.19;4984481;28;20596;-77
2023/06/03 03:34:51;;;;;;;6.30;3.73;;;;;;;12.50;100.00;100286.09;5020241;28;20266;-76
2023/06/03 03:37:16;;;;;;;6.83;3.47;;;;;;;12.49;100.00;100285.25;5012882;28;20206;-76
2023/06/03 03:39:41;;;;;;;6.50;3.73;;;;;;;12.60;100.00;100284.59;5014573;28;20216;-76
2023/06/03 03:42:08;;;;;;;6.07;4.23;;;;;;;12.58;100.00;100283.88;5019470;28;20309;-77
2023/06/03 03:44:33;;;;;;;8.37;4.10;;;;;;;12.53;100.00;100289.31;5014408;28;20214;-76
2023/06/03 03:47:01;;;;;;;7.23;3.73;;;;;;;12.61;100.00;100281.09;5010588;28;20173;-77
2023/06/03 03:49:28;;;;;;;9.43;3.53;;;;;;;12.68;100.00;100281.56;5009353;28;20195;-76
2023/06/03 03:51:56;;;;;;;5.40;3.03;;;;;;;12.70;100.00;100280.56;5005908;28;20221;-79
2023/06/03 03:54:23;;;;;;;7.97;3.73;;;;;;;12.69;100.00;100281.47;5013069;28;20235;-77
2023/06/03 03:56:54;;;;;;;6.53;3.50;;;;;;;12.68;100.00;100289.31;5012610;28;20244;-76
2023/06/03 03:59:19;;;;;;;5.27;3.60;;;;;;;12.63;100.00;100288.75;5012841;28;20594;-76
2023/06/03 04:01:44;;;;;;;5.93;3.50;;;;;;;12.71;100.00;100292.56;5016595;28;20228;-77
2023/06/03 04:04:10;;;;;;;6.33;3.87;;;;;;;12.74;100.00;100297.50;5012565;28;20179;-76
2023/06/03 04:06:38;;;;;;;12.37;3.70;;;;;;;12.73;100.00;100285.53;5012342;28;20186;-77
2023/06/03 04:09:08;;;;;;;4.83;3.00;;;;;;;12.75;100.00;100291.44;5014229;28;20206;-77
2023/06/03 04:11:39;;;;;;;6.30;3.77;;;;;;;12.73;100.00;100290.69;5015631;28;20222;-76
2023/06/03 04:14:08;;;;;;;9.37;3.40;;;;;;;12.80;100.00;100290.31;4997000;28;20230;-77
2023/06/03 04:16:41;;;;;;;7.27;3.90;;;;;;;13.02;100.00;100289.84;5006338;28;20171;-77
2023/06/03 04:19:12;;;;;;;5.47;3.40;;;;;;;12.98;100.00;100290.94;5012497;28;20232;-76
2023/06/03 04:21:38;;;;;;;6.33;3.33;;;;;;;12.94;100.00;100290.31;5005253;28;20265;-76
2023/06/03 04:24:07;;;;;;;10.47;3.63;;;;;;;12.94;100.00;100292.88;5012263;28;20175;-76
2023/06/03 04:26:34;;;;;;;9.10;3.40;;;;;;;12.91;100.00;100293.91;5011752;28;20187;-76
2023/06/03 04:28:59;;;;;;;5.30;3.27;;;;;;;12.92;100.00;100289.56;5006618;28;20635;-76
2023/06/03 04:31:25;;;;;;;6.50;2.90;;;;;;;12.96;100.00;100293.63;4994696;28;20317;-77
2023/06/03 04:33:50;;;;;;;7.73;3.40;;;;;;;13.03;100.00;100294.88;5011286;28;20236;-78
2023/06/03 04:36:15;;;;;;;5.80;3.00;;;;;;;13.09;100.00;100298.88;5013283;28;20274;-77
2023/06/03 04:38:41;;;;;;;7.67;2.80;;;;;;;13.07;100.00;100296.38;5013497;28;20175;-77
2023/06/03 04:41:10;;;;;;;7.20;3.80;;;;;;;13.14;100.00;100294.22;5005130;28;20241;-77
2023/06/03 04:43:38;;;;;;;3.87;3.00;;;;;;;13.23;100.00;100301.44;5011859;28;20182;-77
2023/06/03 04:46:05;;;;;;;9.00;3.23;;;;;;;13.28;100.00;100298.53;5011230;28;20236;-77
2023/06/03 04:48:30;;;;;;;7.83;3.40;;;;;;;13.28;100.00;100298.53;5013502;28;20190;-77
2023/06/03 04:50:56;;;;;;;5.10;2.90;;;;;;;13.44;100.00;100297.63;5010232;28;20715;-77
2023/06/03 04:53:21;;;;;;;7.83;2.60;;;;;;;13.34;100.00;100310.25;5021424;28;20294;-76
2023/06/03 04:55:46;;;;;;;6.57;3.27;;;;;;;13.43;100.00;100301.94;5012772;28;20667;-77
2023/06/03 04:58:11;;;;;;;8.17;2.87;;;;;;;13.43;100.00;100308.88;5012769;28;20186;-76
2023/06/03 05:00:40;;;;;;;6.37;2.87;;;;;;;13.51;100.00;100312.63;5007387;28;20226;-77
2023/06/03 05:03:08;;;;;;;7.30;3.23;;;;;;;13.70;99.60;100301.94;5023464;28;20181;-76
2023/06/03 05:05:34;;;;;;;5.67;3.37;;;;;;;13.74;98.77;100297.38;5011120;28;20179;-76
2023/06/03 05:08:00;;;;;;;7.07;2.67;;;;;;;13.64;96.87;100317.00;5011494;28;20518;-76
2023/06/03 05:10:25;;;;;;;5.57;2.67;;;;;;;13.55;96.53;100301.16;5004109;28;20238;-75
2023/06/03 05:12:50;;;;;;;2.13;1.93;;;;;;;13.62;96.49;100301.59;5024120;28;20226;-76
2023/06/03 05:15:16;;;;;;;4.60;2.67;;;;;;;13.59;95.39;100306.16;5011889;28;20182;-76
2023/06/03 05:17:41;;;;;;;8.00;3.07;;;;;;;13.67;94.24;100286.63;5012690;28;20183;-76
2023/06/03 05:20:09;;;;;;;7.07;2.90;;;;;;;13.68;93.67;100297.78;5002874;28;20198;-75
2023/06/03 05:22:34;;;;;;;6.67;2.83;;;;;;;13.83;92.77;100301.13;5011286;28;20713;-75
2023/06/03 05:25:00;;;;;;;4.97;2.50;;;;;;;13.91;91.67;100300.66;5026233;28;20321;-75
2023/06/03 05:27:25;;;;;;;7.53;2.80;;;;;;;14.11;91.41;100297.56;5011365;28;20183;-75
2023/06/03 05:29:50;;;;;;;5.27;2.70;;;;;;;14.07;87.83;100295.31;4999864;28;20184;-74
2023/06/03 05:32:15;;;;;;;6.00;2.63;;;;;;;13.99;88.45;100294.03;5002406;28;20229;-74
2023/06/03 05:34:40;;;;;;;5.27;2.10;;;;;;;14.03;89.14;100298.06;5027340;28;20534;-75
2023/06/03 05:37:06;;;;;;;4.03;2.10;;;;;;;14.18;86.06;100303.19;5025583;28;20211;-75
2023/06/03 05:39:31;;;;;;;4.87;2.13;;;;;;;14.21;85.91;100302.97;5012541;28;20183;-75
2023/06/03 05:41:56;;;;;;;4.57;2.53;;;;;;;14.32;83.63;100302.25;5016425;28;20722;-75
2023/06/03 05:44:21;;;;;;;6.57;2.90;;;;;;;14.32;81.91;100295.31;5013026;28;20193;-74
2023/06/03 05:46:47;;;;;;;4.87;2.07;;;;;;;14.41;81.21;100296.44;5010604;28;20183;-74
2023/06/03 05:49:12;;;;;;;4.83;2.27;;;;;;;14.50;80.95;100301.00;5012377;28;20183;-74
2023/06/03 05:51:37;;;;;;;4.07;2.40;;;;;;;14.51;78.65;100294.91;5014364;28;20228;-74
2023/06/03 05:54:04;;;;;;;4.17;2.30;;;;;;;14.66;77.30;100294.81;5015138;28;20174;-74
2023/06/03 05:56:29;;;;;;;4.03;2.27;;;;;;;14.77;76.79;100300.09;5010111;28;20229;-74
2023/06/03 05:58:57;;;;;;;4.50;2.13;;;;;;;14.97;72.34;100314.25;5012041;28;20187;-73
2023/06/03 06:01:22;;;;;;;2.90;2.30;;;;;;;14.96;71.29;100293.63;5012080;28;20366;-74
2023/06/03 06:03:48;;;;;;;3.90;2.40;;;;;;;15.14;71.29;100294.94;5017303;28;20265;-75
2023/06/03 06:06:13;;;;;;;4.13;2.20;;;;;;;15.40;68.33;100300.00;5011472;28;20182;-75
2023/06/03 06:08:39;;;;;;;4.10;2.30;;;;;;;15.65;65.83;100300.81;5010838;28;20229;-75
2023/06/03 06:11:04;;;;;;;3.47;1.97;;;;;;;15.98;63.85;100299.34;5009733;28;20309;-75
2023/06/03 06:13:30;;;;;;;3.00;2.03;;;;;;;16.47;60.29;100294.78;5019348;28;20704;-75
2023/06/03 06:16:00;;;;;;;6.47;2.23;;;;;;;16.60;57.91;100294.69;5011364;28;20528;-75
2023/06/03 06:18:26;;;;;;;2.93;2.00;;;;;;;17.14;55.85;100295.75;5010789;28;20248;-75
2023/06/03 06:20:51;;;;;;;8.33;1.90;;;;;;;18.35;50.62;100292.00;5007731;28;20226;-73
2023/06/03 06:23:16;;;;;;;7.67;1.90;;;;;;;18.66;48.41;100294.59;5020760;28;20676;-73
2023/06/03 06:25:49;;;;;;;2.80;1.90;;;;;;;18.39;47.90;100296.03;5015055;28;20174;-73
2023/06/03 06:28:19;;;;;;;4.70;2.30;;;;;;;17.85;50.08;100302.22;5016503;28;20184;-73
2023/06/03 06:30:45;;;;;;;5.80;1.97;;;;;;;18.44;48.57;100295.59;5013534;28;20667;-73
2023/06/03 06:33:13;;;;;;;2.73;1.93;;;;;;;18.88;46.92;100301.41;5027974;28;20199;-73
2023/06/03 06:35:38;;;;;;;3.33;2.10;;;;;;;19.51;44.55;100300.31;5005592;28;20174;-73
2023/06/03 06:38:04;;;;;;;4.17;2.10;;;;;;;19.18;45.55;100301.50;5017852;28;20715;-74
2023/06/03 06:40:33;;;;;;;4.23;2.00;;;;;;;19.65;44.05;100313.91;5009669;28;20237;-74
2023/06/03 06:42:58;;;;;;;3.90;2.20;;;;;;;19.68;43.71;100314.47;5016722;28;20256;-74
2023/06/03 06:45:27;;;;;;;5.20;1.60;;;;;;;19.26;43.52;100314.69;5017857;28;20634;-73
2023/06/03 06:48:03;;;;;;;3.60;2.30;;;;;;;18.69;46.07;100309.16;5016611;28;20186;-74
2023/06/03 06:50:53;;;;;;;3.37;2.20;;;;;;;18.61;46.58;100306.41;5010059;28;20225;-73
2023/06/03 06:53:19;;;;;;;4.83;2.23;;;;;;;19.02;45.32;100307.25;5026826;28;20218;-73
2023/06/03 06:55:56;;;;;;;5.37;2.27;;;;;;;19.13;45.28;100306.31;5016329;28;20241;-73
2023/06/03 06:58:24;;;;;;;4.33;2.20;;;;;;;19.45;44.27;100310.44;5016147;28;20183;-74
2023/06/03 07:00:50;;;;;;;3.93;1.93;;;;;;;20.03;42.92;100304.41;4993355;28;20585;-74
2023/06/03 07:03:16;;;;;;;9.73;2.13;;;;;;;20.58;41.62;100305.50;5006214;28;20190;-75
2023/06/03 07:05:43;;;;;;;3.80;2.33;;;;;;;21.04;39.97;100305.59;5015914;28;20260;-74
2023/06/03 07:08:09;;;;;;;2.37;1.80;;;;;;;21.64;38.43;100310.25;5016129;28;20237;-75
2023/06/03 07:10:35;;;;;;;3.80;1.50;;;;;;;22.49;37.69;100314.94;5012009;28;20235;-75
2023/06/03 07:13:02;;;;;;;5.13;2.03;;;;;;;22.70;36.41;100304.06;5016074;28;20592;-75
2023/06/03 07:15:28;;;;;;;3.13;2.20;;;;;;;21.66;37.77;100303.09;5008835;28;20241;-74
2023/06/03 07:17:57;;;;;;;3.10;2.00;;;;;;;21.69;37.97;100309.81;5015861;28;20179;-75
2023/06/03 07:20:29;;;;;;;4.27;2.23;;;;;;;22.02;37.65;100310.88;5009001;28;20227;-75
2023/06/03 07:22:55;;;;;;;4.90;2.13;;;;;;;21.77;37.83;100304.66;5016475;28;20182;-75
2023/06/03 07:25:34;;;;;;;4.50;1.90;;;;;;;21.03;39.76;100306.53;5017209;28;20494;-75
2023/06/03 07:28:02;;;;;;;4.73;1.93;;;;;;;22.35;37.42;100316.34;5016262;28;20201;-75
2023/06/03 07:30:27;;;;;;;6.07;1.90;;;;;;;21.88;37.73;100314.03;4975911;28;20226;-75
2023/06/03 07:32:58;;;;;;;5.20;2.17;;;;;;;21.33;38.20;100313.22;5010943;28;20186;-75
2023/06/03 07:35:24;;;;;;;4.67;2.30;;;;;;;21.07;39.83;100315.72;5029513;28;20316;-75
2023/06/03 07:37:49;;;;;;;4.77;2.30;;;;;;;20.99;39.78;100313.03;5012378;28;20194;-75
2023/06/03 07:40:16;;;;;;;3.87;2.03;;;;;;;21.24;39.65;100314.13;5005760;28;20171;-75
2023/06/03 07:42:47;;;;;;;6.47;2.20;;;;;;;22.72;37.68;100309.16;5027802;28;20190;-75
2023/06/03 07:45:13;;;;;;;5.20;1.90;;;;;;;23.15;36.56;100315.19;5012262;28;20190;-76
2023/06/03 07:47:39;;;;;;;4.65;2.13;;;;;;;24.12;35.22;100332.19;5013171;28;20183;-75
2023/06/03 07:50:20;;;;;;;4.07;2.00;;;;;;;22.13;36.95;100338.63;5004131;28;20175;-75
2023/06/03 07:52:46;;;;;;;5.30;2.23;;;;;;;22.20;37.40;100336.19;5026858;28;20186;-75
2023/06/03 07:55:11;;;;;;;4.18;2.25;;;;;;;22.28;37.56;100332.81;5013704;28;20579;-76
2023/06/03 07:57:45;;;;;;;2.45;1.80;;;;;;;22.64;36.80;100336.16;5012435;28;20183;-75
2023/06/03 08:00:14;;;;;;;3.58;2.08;;;;;;;23.05;36.19;100333.69;5003710;28;20262;-76
2023/06/03 08:02:39;;;;;;;2.83;2.00;;;;;;;22.85;36.60;100322.63;5012319;28;20191;-75
2023/06/03 08:05:05;;;;;;;3.10;2.00;;;;;;;21.35;38.88;100332.22;5013582;28;20186;-76
2023/06/03 08:07:32;;;;;;;3.65;2.97;;;;;;;20.81;40.62;100324.25;5013762;28;20197;-75
2023/06/03 08:09:58;;;;;;;5.03;2.27;;;;;;;20.27;42.18;100329.25;5012432;28;20187;-75
2023/06/03 08:12:30;;;;;;;4.43;2.33;;;;;;;19.35;44.27;100326.94;5002215;28;20248;-75
2023/06/03 08:14:56;;;;;;;3.77;2.17;;;;;;;19.03;46.41;100321.94;5012655;28;20237;-75
2023/06/03 08:17:40;;;;;;;3.90;2.00;;;;;;;20.02;43.51;100326.28;5011699;28;20186;-75
2023/06/03 08:20:09;;;;;;;6.77;2.87;;;;;;;21.52;40.64;100332.38;5003753;28;20174;-76
2023/06/03 08:22:44;;;;;;;10.37;2.33;;;;;;;21.70;39.62;100312.28;5027756;28;20226;-76
2023/06/03 08:25:10;;;;;;;4.77;2.43;;;;;;;20.63;40.95;100329.41;5012958;28;20620;-75
2023/06/03 08:27:37;;;;;;;3.13;2.30;;;;;;;20.16;43.05;100325.00;5012603;28;20264;-76
2023/06/03 08:30:03;;;;;;;4.53;2.10;;;;;;;20.76;42.62;100326.50;5007075;28;20262;-74
2023/06/03 08:32:36;;;;;;;4.50;2.10;;;;;;;20.41;42.21;100334.00;5011651;28;20641;-75
2023/06/03 08:35:02;;;;;;;8.03;2.67;;;;;;;20.27;43.00;100327.44;5027693;28;20544;-75
2023/06/03 08:37:28;;;;;;;5.97;2.30;;;;;;;19.22;46.44;100317.72;5011987;28;20201;-76
2023/06/03 08:39:54;;;;;;;4.63;2.37;;;;;;;20.53;43.65;100323.38;5027910;28;20179;-76
2023/06/03 08:42:23;;;;;;;8.17;2.60;;;;;;;21.85;41.33;100325.63;5002480;28;20226;-76
2023/06/03 08:44:59;;;;;;;5.83;2.13;;;;;;;22.19;40.48;100324.06;5011732;28;20290;-76
2023/06/03 08:47:54;;;;;;;5.40;2.33;;;;;;;23.55;36.99;100322.50;5011934;28;20181;-76
2023/06/03 08:50:21;;;;;;;9.30;3.03;;;;;;;23.20;37.47;100319.97;4986041;28;20194;-76
2023/06/03 08:52:48;;;;;;;3.53;2.20;;;;;;;22.82;37.92;100322.97;5011922;28;20187;-77
2023/06/03 08:55:17;;;;;;;3.47;2.30;;;;;;;23.01;37.43;100329.75;5011085;28;20670;-76
2023/06/03 08:57:51;;;;;;;4.65;2.47;;;;;;;22.64;38.32;100325.66;5013103;28;20190;-77
2023/06/03 09:00:24;;;;;;;4.80;2.15;;;;;;;23.84;36.46;100328.06;5003209;28;20182;-77
2023/06/03 09:02:53;;;;;;;5.88;2.00;;;;;;;23.89;36.17;100340.72;5025256;28;20644;-74
2023/06/03 09:05:20;;;;;;;5.72;2.22;;;;;;;24.56;35.42;100321.22;5011242;28;20277;-75
2023/06/03 09:07:47;;;;;;;8.38;2.60;;;;;;;25.58;34.35;100325.63;5011339;28;20193;-75
2023/06/03 09:10:15;;;;;;;2.08;1.88;;;;;;;23.98;36.15;100325.78;5002621;28;20190;-75
2023/06/03 09:12:41;;;;;;;4.82;2.30;;;;;;;22.87;38.21;100320.69;5025738;28;20316;-75
2023/06/03 09:15:07;;;;;;;4.78;2.30;;;;;;;23.94;37.17;100324.47;5012463;28;20183;-75
2023/06/03 09:17:35;;;;;;;4.70;2.20;;;;;;;24.23;36.13;100328.38;5011371;28;20823;-77
2023/06/03 09:20:02;;;;;;;5.55;2.67;;;;;;;23.94;37.10;100333.19;5011367;28;20202;-76
2023/06/03 09:22:28;;;;;;;4.78;2.72;;;;;;;24.22;37.01;100330.19;5001346;28;20801;-76
2023/06/03 09:24:53;;;;;;;6.47;2.40;;;;;;;24.38;36.48;100329.31;5012931;28;20218;-76
2023/06/03 09:27:19;;;;;;;6.40;2.53;;;;;;;24.68;35.36;100329.56;5010510;28;20293;-76
2023/06/03 09:29:44;;;;;;;6.38;2.47;;;;;;;24.47;35.54;100333.56;4999680;28;20630;-75
2023/06/03 09:32:10;;;;;;;3.15;2.40;;;;;;;24.86;35.37;100336.41;5016008;28;20229;-76
2023/06/03 09:34:36;;;;;;;4.03;2.88;;;;;;;24.20;36.26;100333.97;5011137;28;20610;-76
2023/06/03 09:37:08;;;;;;;4.10;2.42;;;;;;;25.00;35.67;100342.75;5011893;28;20642;-76
2023/06/03 09:39:35;;;;;;;4.55;2.50;;;;;;;24.95;35.33;100322.22;5010921;28;20182;-77
2023/06/03 09:42:01;;;;;;;3.05;1.90;;;;;;;25.53;35.03;100330.59;5003318;28;20228;-77
2023/06/03 09:44:39;;;;;;;5.63;2.33;;;;;;;25.58;34.29;100336.16;5011111;28;20293;-76
2023/06/03 09:47:05;;;;;;;8.23;2.88;;;;;;;23.79;37.29;100337.41;5015443;28;20182;-76
2023/06/03 09:49:30;;;;;;;5.22;2.45;;;;;;;24.08;37.16;100329.06;5011937;28;20241;-77
2023/06/03 09:51:55;;;;;;;5.05;2.33;;;;;;;24.41;36.41;100326.38;5016141;28;20225;-77
2023/06/03 09:54:25;;;;;;;5.05;2.20;;;;;;;24.86;36.10;100320.63;5012780;28;20182;-78
2023/06/03 09:56:51;;;;;;;4.55;2.90;;;;;;;24.43;36.04;100326.19;5011796;28;20553;-77
2023/06/03 09:59:18;;;;;;;6.57;2.47;;;;;;;23.80;38.40;100323.31;5010004;28;20198;-77
2023/06/03 10:01:46;;;;;;;4.35;2.50;;;;;;;22.98;39.29;100327.41;5003719;28;20292;-76
2023/06/03 10:04:14;;;;;;;4.15;2.97;;;;;;;22.20;41.44;100321.31;5013560;28;20198;-77
2023/06/03 10:06:39;;;;;;;8.90;3.03;;;;;;;23.25;40.39;100315.06;5009950;28;20622;-76
2023/06/03 10:09:18;;;;;;;4.30;2.70;;;;;;;24.63;38.29;100321.34;5011631;28;20189;-77
2023/06/03 10:11:52;;;;;;;6.00;2.80;;;;;;;25.10;35.80;100336.28;5003495;28;20256;-76
2023/06/03 10:14:25;;;;;;;4.60;2.58;;;;;;;23.61;38.39;100320.03;5010426;28;20187;-76
2023/06/03 10:17:02;;;;;;;6.00;2.75;;;;;;;22.85;40.62;100312.16;5011291;28;20179;-76
2023/06/03 10:19:28;;;;;;;4.80;2.72;;;;;;;22.60;41.58;100320.88;5000203;28;20178;-76
2023/06/03 10:21:54;;;;;;;7.97;2.75;;;;;;;22.70;41.26;100319.78;5014912;28;20312;-76
2023/06/03 10:24:22;;;;;;;8.37;3.03;;;;;;;22.26;42.09;100312.00;5012839;28;20190;-76
2023/06/03 10:26:48;;;;;;;7.67;3.33;;;;;;;21.89;43.46;100313.06;5009765;28;20190;-76
2023/06/03 10:29:15;;;;;;;4.60;3.10;;;;;;;21.97;43.92;100315.75;5002783;28;20198;-77
2023/06/03 10:31:44;;;;;;;4.80;2.97;;;;;;;23.02;42.09;100313.03;5008744;28;20236;-76
2023/06/03 10:34:14;;;;;;;4.10;2.77;;;;;;;23.52;39.46;100307.88;5009958;28;20175;-76
2023/06/03 10:36:41;;;;;;;13.47;2.90;;;;;;;23.87;38.85;100305.91;5011226;28;20622;-76
2023/06/03 10:39:10;;;;;;;5.65;2.88;;;;;;;23.46;40.79;100298.03;5010326;28;20179;-76
2023/06/03 10:41:38;;;;;;;3.47;2.80;;;;;;;22.29;43.22;100298.59;5003078;28;20249;-76
2023/06/03 10:44:03;;;;;;;4.60;2.73;;;;;;;22.29;43.88;100303.00;5010106;28;20183;-76
2023/06/03 10:46:29;;;;;;;4.53;3.03;;;;;;;21.72;44.36;100310.34;5010960;28;20248;-75
2023/06/03 10:48:55;;;;;;;3.90;2.70;;;;;;;21.53;45.76;100300.00;5011669;28;20179;-75
2023/06/03 10:51:32;;;;;;;7.93;3.13;;;;;;;21.73;44.98;100306.75;5002924;28;20222;-75
2023/06/03 10:54:19;;;;;;;7.20;3.50;;;;;;;21.58;45.77;100309.09;5015246;28;20646;-75
2023/06/03 10:56:57;;;;;;;4.77;3.20;;;;;;;21.53;44.99;100298.22;4998051;28;20172;-75
2023/06/03 10:59:27;;;;;;;6.60;3.40;;;;;;;21.62;44.96;100295.69;5010054;28;20183;-75
2023/06/03 11:02:01;;;;;;;3.93;2.97;;;;;;;21.87;44.77;100296.72;4992277;28;20222;-74
2023/06/03 11:04:32;;;;;;;7.37;3.20;;;;;;;21.98;45.27;100293.84;5011869;28;20190;-76
2023/06/03 11:06:57;;;;;;;7.10;2.80;;;;;;;22.14;44.28;100292.28;5009669;28;20221;-75
2023/06/03 11:09:39;;;;;;;5.23;3.20;;;;;;;22.09;44.99;100296.19;5011018;28;20211;-76
2023/06/03 11:12:09;;;;;;;6.20;3.07;;;;;;;22.28;44.44;100299.56;5004106;28;20240;-76
2023/06/03 11:14:38;;;;;;;3.63;2.77;;;;;;;22.57;42.73;100282.72;4999215;28;20180;-76
2023/06/03 11:17:03;;;;;;;6.03;3.73;;;;;;;22.63;43.76;100289.13;5015096;28;20229;-76
2023/06/03 11:19:31;;;;;;;4.50;2.60;;;;;;;22.54;42.37;100280.41;5015064;28;20512;-75
2023/06/03 11:22:00;;;;;;;5.23;3.13;;;;;;;22.54;43.66;100283.03;5006130;28;20230;-75
2023/06/03 11:24:38;;;;;;;3.97;3.37;;;;;;;22.19;44.38;100284.78;5013785;28;20189;-75